sensor_id;sensor_type;location;lat;lon;timestamp;P1;durP1;ratioP1;P2;durP2;ratioP2
70303;SDS011;57712;48.752;11.348;2023-01-31T00:02:23;11.57;;;4.00;;
70303;SDS011;57712;48.752;11.348;2023-01-31T00:04:50;8.77;;;3.67;;
70303;SDS011;57712;48.752;11.348;2023-01-31T00:07:17;10.07;;;4.00;;
70303;SDS011;57712;48.752;11.348;2023-01-31T00:09:43;10.70;;;3.90;;
70303;SDS011;57712;48.752;11.348;2023-01-31T00:12:10;8.40;;;3.77;;
70303;SDS011;57712;48.752;11.348;2023-01-31T00:14:36;10.02;;;3.60;;
70303;SDS011;57712;48.752;11.348;2023-01-31T00:17:03;11.55;;;3.97;;
70303;SDS011;57712;48.752;11.348;2023-01-31T00:19:30;9.50;;;3.58;;
70303;SDS011;57712;48.752;11.348;2023-01-31T00:21:56;9.30;;;3.95;;
70303;SDS011;57712;48.752;11.348;2023-01-31T00:24:23;11.98;;;3.83;;
70303;SDS011;57712;48.752;11.348;2023-01-31T00:26:49;13.88;;;4.30;;
70303;SDS011;57712;48.752;11.348;2023-01-31T00:29:22;11.60;;;4.03;;
70303;SDS011;57712;48.752;11.348;2023-01-31T00:31:49;10.10;;;3.42;;
70303;SDS011;57712;48.752;11.348;2023-01-31T00:34:17;13.27;;;3.90;;
70303;SDS011;57712;48.752;11.348;2023-01-31T00:36:44;11.30;;;3.60;;
70303;SDS011;57712;48.752;11.348;2023-01-31T00:39:10;9.00;;;3.05;;
70303;SDS011;57712;48.752;11.348;2023-01-31T00:41:37;10.10;;;3.78;;
70303;SDS011;57712;48.752;11.348;2023-01-31T00:44:04;12.13;;;3.88;;
70303;SDS011;57712;48.752;11.348;2023-01-31T00:46:31;13.18;;;3.80;;
70303;SDS011;57712;48.752;11.348;2023-01-31T00:48:58;16.83;;;4.17;;
70303;SDS011;57712;48.752;11.348;2023-01-31T00:51:25;12.40;;;4.20;;
70303;SDS011;57712;48.752;11.348;2023-01-31T00:53:52;8.98;;;3.45;;
70303;SDS011;57712;48.752;11.348;2023-01-31T00:56:20;13.00;;;3.50;;
70303;SDS011;57712;48.752;11.348;2023-01-31T00:58:49;14.27;;;4.15;;
70303;SDS011;57712;48.752;11.348;2023-01-31T01:01:20;14.23;;;3.57;;
70303;SDS011;57712;48.752;11.348;2023-01-31T01:03:48;11.95;;;3.67;;
70303;SDS011;57712;48.752;11.348;2023-01-31T01:06:15;12.13;;;3.70;;
70303;SDS011;57712;48.752;11.348;2023-01-31T01:08:43;10.85;;;4.07;;
70303;SDS011;57712;48.752;11.348;2023-01-31T01:11:17;12.70;;;3.75;;
70303;SDS011;57712;48.752;11.348;2023-01-31T01:13:46;11.55;;;3.65;;
70303;SDS011;57712;48.752;11.348;2023-01-31T01:16:14;10.85;;;3.90;;
70303;SDS011;57712;48.752;11.348;2023-01-31T01:18:45;12.02;;;3.92;;
70303;SDS011;57712;48.752;11.348;2023-01-31T01:21:22;11.65;;;4.20;;
70303;SDS011;57712;48.752;11.348;2023-01-31T01:23:50;11.25;;;3.90;;
70303;SDS011;57712;48.752;11.348;2023-01-31T01:26:21;8.68;;;4.13;;
70303;SDS011;57712;48.752;11.348;2023-01-31T01:28:50;12.57;;;4.15;;
70303;SDS011;57712;48.752;11.348;2023-01-31T01:31:18;15.20;;;4.00;;
70303;SDS011;57712;48.752;11.348;2023-01-31T01:33:47;11.68;;;3.85;;
70303;SDS011;57712;48.752;11.348;2023-01-31T01:36:15;13.18;;;4.03;;
70303;SDS011;57712;48.752;11.348;2023-01-31T01:38:43;13.77;;;5.03;;
70303;SDS011;57712;48.752;11.348;2023-01-31T01:41:11;15.15;;;3.45;;
70303;SDS011;57712;48.752;11.348;2023-01-31T01:46:58;10.95;;;3.78;;
70303;SDS011;57712;48.752;11.348;2023-01-31T01:49:29;14.32;;;3.83;;
70303;SDS011;57712;48.752;11.348;2023-01-31T01:52:02;10.27;;;3.30;;
70303;SDS011;57712;48.752;11.348;2023-01-31T01:54:36;11.82;;;3.17;;
70303;SDS011;57712;48.752;11.348;2023-01-31T01:57:09;10.38;;;3.60;;
70303;SDS011;57712;48.752;11.348;2023-01-31T01:59:41;10.63;;;3.25;;
70303;SDS011;57712;48.752;11.348;2023-01-31T02:02:10;13.65;;;3.83;;
70303;SDS011;57712;48.752;11.348;2023-01-31T02:04:39;14.13;;;3.50;;
70303;SDS011;57712;48.752;11.348;2023-01-31T02:07:07;12.88;;;3.30;;
70303;SDS011;57712;48.752;11.348;2023-01-31T02:12:07;15.23;;;3.53;;
70303;SDS011;57712;48.752;11.348;2023-01-31T02:14:35;11.77;;;3.35;;
70303;SDS011;57712;48.752;11.348;2023-01-31T02:17:02;12.67;;;3.93;;
70303;SDS011;57712;48.752;11.348;2023-01-31T02:19:37;12.18;;;3.60;;
70303;SDS011;57712;48.752;11.348;2023-01-31T02:22:24;12.07;;;4.00;;
70303;SDS011;57712;48.752;11.348;2023-01-31T02:33:07;12.25;;;3.85;;
70303;SDS011;57712;48.752;11.348;2023-01-31T02:38:32;11.93;;;4.10;;
70303;SDS011;57712;48.752;11.348;2023-01-31T02:41:23;12.05;;;4.10;;
70303;SDS011;57712;48.752;11.348;2023-01-31T02:44:11;11.13;;;3.70;;
70303;SDS011;57712;48.752;11.348;2023-01-31T02:47:28;10.93;;;4.13;;
70303;SDS011;57712;48.752;11.348;2023-01-31T02:50:12;12.93;;;3.85;;
70303;SDS011;57712;48.752;11.348;2023-01-31T02:52:44;10.13;;;3.95;;
70303;SDS011;57712;48.752;11.348;2023-01-31T02:55:22;13.77;;;4.20;;
70303;SDS011;57712;48.752;11.348;2023-01-31T02:58:12;10.57;;;3.90;;
70303;SDS011;57712;48.752;11.348;2023-01-31T03:00:42;13.50;;;3.63;;
70303;SDS011;57712;48.752;11.348;2023-01-31T03:03:12;11.77;;;4.35;;
70303;SDS011;57712;48.752;11.348;2023-01-31T03:05:55;11.93;;;4.32;;
70303;SDS011;57712;48.752;11.348;2023-01-31T03:08:35;10.35;;;4.00;;
70303;SDS011;57712;48.752;11.348;2023-01-31T03:11:04;13.73;;;4.60;;
70303;SDS011;57712;48.752;11.348;2023-01-31T03:13:41;11.73;;;4.10;;
70303;SDS011;57712;48.752;11.348;2023-01-31T03:16:24;13.32;;;4.97;;
70303;SDS011;57712;48.752;11.348;2023-01-31T03:19:19;12.93;;;4.15;;
70303;SDS011;57712;48.752;11.348;2023-01-31T03:22:17;12.02;;;4.30;;
70303;SDS011;57712;48.752;11.348;2023-01-31T03:24:50;10.63;;;3.80;;
70303;SDS011;57712;48.752;11.348;2023-01-31T03:27:17;13.70;;;4.03;;
70303;SDS011;57712;48.752;11.348;2023-01-31T03:29:46;11.88;;;4.07;;
70303;SDS011;57712;48.752;11.348;2023-01-31T03:32:24;12.15;;;4.05;;
70303;SDS011;57712;48.752;11.348;2023-01-31T03:34:56;12.52;;;4.40;;
70303;SDS011;57712;48.752;11.348;2023-01-31T03:40:14;12.13;;;4.03;;
70303;SDS011;57712;48.752;11.348;2023-01-31T03:42:56;14.02;;;4.50;;
70303;SDS011;57712;48.752;11.348;2023-01-31T03:48:18;11.88;;;4.07;;
70303;SDS011;57712;48.752;11.348;2023-01-31T03:50:52;10.77;;;4.07;;
70303;SDS011;57712;48.752;11.348;2023-01-31T03:53:34;11.82;;;4.03;;
70303;SDS011;57712;48.752;11.348;2023-01-31T03:56:10;11.13;;;3.65;;
70303;SDS011;57712;48.752;11.348;2023-01-31T03:58:44;13.13;;;4.40;;
70303;SDS011;57712;48.752;11.348;2023-01-31T04:01:16;12.88;;;3.97;;
70303;SDS011;57712;48.752;11.348;2023-01-31T04:03:44;10.23;;;3.80;;
70303;SDS011;57712;48.752;11.348;2023-01-31T04:06:16;12.00;;;3.63;;
70303;SDS011;57712;48.752;11.348;2023-01-31T04:08:43;9.73;;;4.10;;
70303;SDS011;57712;48.752;11.348;2023-01-31T04:11:11;11.13;;;3.63;;
70303;SDS011;57712;48.752;11.348;2023-01-31T04:13:40;9.93;;;3.72;;
70303;SDS011;57712;48.752;11.348;2023-01-31T04:16:07;10.00;;;3.60;;
70303;SDS011;57712;48.752;11.348;2023-01-31T04:18:34;9.90;;;4.10;;
70303;SDS011;57712;48.752;11.348;2023-01-31T04:21:03;13.73;;;4.47;;
70303;SDS011;57712;48.752;11.348;2023-01-31T04:23:30;10.55;;;3.85;;
70303;SDS011;57712;48.752;11.348;2023-01-31T04:25:57;13.25;;;4.00;;
70303;SDS011;57712;48.752;11.348;2023-01-31T04:28:23;11.30;;;4.00;;
70303;SDS011;57712;48.752;11.348;2023-01-31T04:30:53;13.65;;;4.40;;
70303;SDS011;57712;48.752;11.348;2023-01-31T04:33:21;10.15;;;4.25;;
70303;SDS011;57712;48.752;11.348;2023-01-31T04:35:51;11.18;;;4.30;;
70303;SDS011;57712;48.752;11.348;2023-01-31T04:38:18;10.23;;;4.20;;
70303;SDS011;57712;48.752;11.348;2023-01-31T04:40:44;10.67;;;3.90;;
70303;SDS011;57712;48.752;11.348;2023-01-31T04:43:11;10.77;;;3.70;;
70303;SDS011;57712;48.752;11.348;2023-01-31T04:45:38;11.30;;;3.97;;
70303;SDS011;57712;48.752;11.348;2023-01-31T04:48:05;10.63;;;3.28;;
70303;SDS011;57712;48.752;11.348;2023-01-31T04:50:31;10.45;;;3.67;;
70303;SDS011;57712;48.752;11.348;2023-01-31T04:52:58;8.80;;;3.23;;
70303;SDS011;57712;48.752;11.348;2023-01-31T04:55:24;10.70;;;3.25;;
70303;SDS011;57712;48.752;11.348;2023-01-31T04:57:52;9.57;;;3.38;;
70303;SDS011;57712;48.752;11.348;2023-01-31T05:00:19;8.65;;;3.00;;
70303;SDS011;57712;48.752;11.348;2023-01-31T05:02:46;8.10;;;3.30;;
70303;SDS011;57712;48.752;11.348;2023-01-31T05:05:12;9.50;;;3.50;;
70303;SDS011;57712;48.752;11.348;2023-01-31T05:07:39;11.45;;;3.22;;
70303;SDS011;57712;48.752;11.348;2023-01-31T05:10:06;12.52;;;3.42;;
70303;SDS011;57712;48.752;11.348;2023-01-31T05:12:33;9.98;;;3.00;;
70303;SDS011;57712;48.752;11.348;2023-01-31T05:14:59;10.00;;;3.42;;
70303;SDS011;57712;48.752;11.348;2023-01-31T05:17:26;9.95;;;3.22;;
70303;SDS011;57712;48.752;11.348;2023-01-31T05:19:55;10.73;;;3.28;;
70303;SDS011;57712;48.752;11.348;2023-01-31T05:22:22;13.30;;;3.40;;
70303;SDS011;57712;48.752;11.348;2023-01-31T05:24:50;23.02;;;4.30;;
70303;SDS011;57712;48.752;11.348;2023-01-31T05:27:17;10.32;;;3.28;;
70303;SDS011;57712;48.752;11.348;2023-01-31T05:29:44;12.88;;;3.05;;
70303;SDS011;57712;48.752;11.348;2023-01-31T05:32:11;9.80;;;3.60;;
70303;SDS011;57712;48.752;11.348;2023-01-31T05:34:39;11.18;;;3.05;;
70303;SDS011;57712;48.752;11.348;2023-01-31T05:37:06;11.10;;;3.67;;
70303;SDS011;57712;48.752;11.348;2023-01-31T05:39:32;11.93;;;3.17;;
70303;SDS011;57712;48.752;11.348;2023-01-31T05:41:59;10.97;;;3.10;;
70303;SDS011;57712;48.752;11.348;2023-01-31T05:44:27;9.88;;;3.20;;
70303;SDS011;57712;48.752;11.348;2023-01-31T05:46:53;12.57;;;4.40;;
70303;SDS011;57712;48.752;11.348;2023-01-31T05:49:20;11.50;;;3.28;;
70303;SDS011;57712;48.752;11.348;2023-01-31T05:51:46;14.05;;;3.50;;
70303;SDS011;57712;48.752;11.348;2023-01-31T05:54:13;12.37;;;3.47;;
70303;SDS011;57712;48.752;11.348;2023-01-31T05:56:39;11.90;;;3.63;;
70303;SDS011;57712;48.752;11.348;2023-01-31T05:59:06;10.07;;;2.88;;
70303;SDS011;57712;48.752;11.348;2023-01-31T06:01:33;10.98;;;3.15;;
70303;SDS011;57712;48.752;11.348;2023-01-31T06:03:59;9.23;;;3.28;;
70303;SDS011;57712;48.752;11.348;2023-01-31T06:06:26;16.23;;;3.60;;
70303;SDS011;57712;48.752;11.348;2023-01-31T06:08:52;8.38;;;3.50;;
70303;SDS011;57712;48.752;11.348;2023-01-31T06:11:19;13.43;;;3.72;;
70303;SDS011;57712;48.752;11.348;2023-01-31T06:13:45;11.02;;;3.67;;
70303;SDS011;57712;48.752;11.348;2023-01-31T06:16:14;13.00;;;3.35;;
70303;SDS011;57712;48.752;11.348;2023-01-31T06:18:41;12.77;;;3.70;;
70303;SDS011;57712;48.752;11.348;2023-01-31T06:21:07;10.25;;;3.10;;
70303;SDS011;57712;48.752;11.348;2023-01-31T06:23:34;12.48;;;3.55;;
70303;SDS011;57712;48.752;11.348;2023-01-31T06:26:00;10.98;;;3.50;;
70303;SDS011;57712;48.752;11.348;2023-01-31T06:28:27;13.90;;;4.35;;
70303;SDS011;57712;48.752;11.348;2023-01-31T06:30:54;9.47;;;3.33;;
70303;SDS011;57712;48.752;11.348;2023-01-31T06:33:21;11.48;;;3.10;;
70303;SDS011;57712;48.752;11.348;2023-01-31T06:35:59;9.65;;;2.75;;
70303;SDS011;57712;48.752;11.348;2023-01-31T06:38:26;9.98;;;3.47;;
70303;SDS011;57712;48.752;11.348;2023-01-31T06:40:53;13.15;;;3.72;;
70303;SDS011;57712;48.752;11.348;2023-01-31T06:43:20;10.57;;;3.30;;
70303;SDS011;57712;48.752;11.348;2023-01-31T06:45:47;11.10;;;3.47;;
70303;SDS011;57712;48.752;11.348;2023-01-31T06:48:16;9.27;;;3.10;;
70303;SDS011;57712;48.752;11.348;2023-01-31T06:50:44;10.50;;;3.03;;
70303;SDS011;57712;48.752;11.348;2023-01-31T06:53:11;11.80;;;3.63;;
70303;SDS011;57712;48.752;11.348;2023-01-31T06:55:38;9.83;;;2.73;;
70303;SDS011;57712;48.752;11.348;2023-01-31T06:58:05;10.25;;;2.97;;
70303;SDS011;57712;48.752;11.348;2023-01-31T07:00:31;8.38;;;2.40;;
70303;SDS011;57712;48.752;11.348;2023-01-31T07:02:58;8.95;;;2.80;;
70303;SDS011;57712;48.752;11.348;2023-01-31T07:05:24;12.25;;;2.97;;
70303;SDS011;57712;48.752;11.348;2023-01-31T07:07:51;9.07;;;3.10;;
70303;SDS011;57712;48.752;11.348;2023-01-31T07:10:17;9.55;;;2.88;;
70303;SDS011;57712;48.752;11.348;2023-01-31T07:12:44;11.25;;;2.67;;
70303;SDS011;57712;48.752;11.348;2023-01-31T07:15:11;10.65;;;3.13;;
70303;SDS011;57712;48.752;11.348;2023-01-31T07:17:37;8.45;;;3.20;;
70303;SDS011;57712;48.752;11.348;2023-01-31T07:20:04;12.27;;;3.72;;
70303;SDS011;57712;48.752;11.348;2023-01-31T07:22:31;11.80;;;2.90;;
70303;SDS011;57712;48.752;11.348;2023-01-31T07:24:57;10.25;;;2.92;;
70303;SDS011;57712;48.752;11.348;2023-01-31T07:27:23;9.75;;;2.80;;
70303;SDS011;57712;48.752;11.348;2023-01-31T07:29:50;7.80;;;2.50;;
70303;SDS011;57712;48.752;11.348;2023-01-31T07:32:17;11.80;;;2.95;;
70303;SDS011;57712;48.752;11.348;2023-01-31T07:34:45;10.82;;;3.35;;
70303;SDS011;57712;48.752;11.348;2023-01-31T07:37:11;13.30;;;3.25;;
70303;SDS011;57712;48.752;11.348;2023-01-31T07:39:38;9.27;;;2.95;;
70303;SDS011;57712;48.752;11.348;2023-01-31T07:42:04;13.13;;;3.10;;
70303;SDS011;57712;48.752;11.348;2023-01-31T07:44:31;11.45;;;3.65;;
70303;SDS011;57712;48.752;11.348;2023-01-31T07:46:57;10.82;;;2.78;;
70303;SDS011;57712;48.752;11.348;2023-01-31T07:49:24;10.95;;;3.10;;
70303;SDS011;57712;48.752;11.348;2023-01-31T07:51:50;12.23;;;3.40;;
70303;SDS011;57712;48.752;11.348;2023-01-31T07:54:17;9.40;;;3.00;;
70303;SDS011;57712;48.752;11.348;2023-01-31T07:56:43;10.55;;;2.65;;
70303;SDS011;57712;48.752;11.348;2023-01-31T07:59:10;10.63;;;2.92;;
70303;SDS011;57712;48.752;11.348;2023-01-31T08:01:37;11.80;;;3.08;;
70303;SDS011;57712;48.752;11.348;2023-01-31T08:04:22;11.80;;;2.80;;
70303;SDS011;57712;48.752;11.348;2023-01-31T08:06:49;12.52;;;3.03;;
70303;SDS011;57712;48.752;11.348;2023-01-31T08:09:20;14.67;;;2.53;;
70303;SDS011;57712;48.752;11.348;2023-01-31T08:11:48;9.52;;;2.65;;
70303;SDS011;57712;48.752;11.348;2023-01-31T08:14:15;9.90;;;2.92;;
70303;SDS011;57712;48.752;11.348;2023-01-31T08:16:41;9.48;;;2.75;;
70303;SDS011;57712;48.752;11.348;2023-01-31T08:19:08;10.65;;;2.60;;
70303;SDS011;57712;48.752;11.348;2023-01-31T08:21:34;9.93;;;2.57;;
70303;SDS011;57712;48.752;11.348;2023-01-31T08:24:01;8.23;;;2.80;;
70303;SDS011;57712;48.752;11.348;2023-01-31T08:26:27;9.82;;;2.90;;
70303;SDS011;57712;48.752;11.348;2023-01-31T08:28:54;8.70;;;3.58;;
70303;SDS011;57712;48.752;11.348;2023-01-31T08:31:23;11.18;;;3.40;;
70303;SDS011;57712;48.752;11.348;2023-01-31T08:33:51;11.27;;;2.97;;
70303;SDS011;57712;48.752;11.348;2023-01-31T08:36:22;7.10;;;2.63;;
70303;SDS011;57712;48.752;11.348;2023-01-31T08:38:51;9.68;;;2.92;;
70303;SDS011;57712;48.752;11.348;2023-01-31T08:41:20;8.57;;;2.25;;
70303;SDS011;57712;48.752;11.348;2023-01-31T08:43:48;9.60;;;3.00;;
70303;SDS011;57712;48.752;11.348;2023-01-31T08:46:23;11.75;;;3.17;;
70303;SDS011;57712;48.752;11.348;2023-01-31T08:48:51;11.10;;;3.83;;
70303;SDS011;57712;48.752;11.348;2023-01-31T08:51:18;11.05;;;3.30;;
70303;SDS011;57712;48.752;11.348;2023-01-31T08:53:45;11.43;;;3.30;;
70303;SDS011;57712;48.752;11.348;2023-01-31T08:56:11;13.57;;;3.00;;
70303;SDS011;57712;48.752;11.348;2023-01-31T08:58:39;8.03;;;2.60;;
70303;SDS011;57712;48.752;11.348;2023-01-31T09:01:12;10.18;;;3.35;;
70303;SDS011;57712;48.752;11.348;2023-01-31T09:03:40;9.65;;;3.60;;
70303;SDS011;57712;48.752;11.348;2023-01-31T09:06:11;10.32;;;3.08;;
70303;SDS011;57712;48.752;11.348;2023-01-31T09:08:41;13.82;;;3.92;;
70303;SDS011;57712;48.752;11.348;2023-01-31T09:11:07;17.00;;;5.47;;
70303;SDS011;57712;48.752;11.348;2023-01-31T09:13:34;8.95;;;3.10;;
70303;SDS011;57712;48.752;11.348;2023-01-31T09:16:05;11.25;;;3.63;;
70303;SDS011;57712;48.752;11.348;2023-01-31T09:18:37;13.65;;;3.55;;
70303;SDS011;57712;48.752;11.348;2023-01-31T09:23:38;10.80;;;3.40;;
70303;SDS011;57712;48.752;11.348;2023-01-31T09:26:08;8.57;;;3.40;;
70303;SDS011;57712;48.752;11.348;2023-01-31T09:28:36;10.60;;;3.05;;
70303;SDS011;57712;48.752;11.348;2023-01-31T09:31:07;10.15;;;3.08;;
70303;SDS011;57712;48.752;11.348;2023-01-31T09:33:36;9.15;;;2.70;;
70303;SDS011;57712;48.752;11.348;2023-01-31T09:36:03;10.13;;;2.83;;
70303;SDS011;57712;48.752;11.348;2023-01-31T09:38:32;12.32;;;2.55;;
70303;SDS011;57712;48.752;11.348;2023-01-31T09:41:00;10.50;;;3.00;;
70303;SDS011;57712;48.752;11.348;2023-01-31T09:43:37;13.15;;;3.15;;
70303;SDS011;57712;48.752;11.348;2023-01-31T09:46:12;9.13;;;2.40;;
70303;SDS011;57712;48.752;11.348;2023-01-31T09:48:46;9.30;;;2.87;;
70303;SDS011;57712;48.752;11.348;2023-01-31T09:51:16;13.05;;;2.88;;
70303;SDS011;57712;48.752;11.348;2023-01-31T09:53:44;10.55;;;3.63;;
70303;SDS011;57712;48.752;11.348;2023-01-31T09:56:14;11.75;;;3.08;;
70303;SDS011;57712;48.752;11.348;2023-01-31T10:10:29;12.73;;;3.33;;
70303;SDS011;57712;48.752;11.348;2023-01-31T10:13:03;12.15;;;2.85;;
70303;SDS011;57712;48.752;11.348;2023-01-31T10:15:40;12.67;;;2.67;;
70303;SDS011;57712;48.752;11.348;2023-01-31T10:18:30;12.80;;;3.10;;
70303;SDS011;57712;48.752;11.348;2023-01-31T10:21:08;10.25;;;2.55;;
70303;SDS011;57712;48.752;11.348;2023-01-31T10:23:39;9.75;;;2.60;;
70303;SDS011;57712;48.752;11.348;2023-01-31T10:26:12;10.18;;;2.80;;
70303;SDS011;57712;48.752;11.348;2023-01-31T10:28:56;12.60;;;2.70;;
70303;SDS011;57712;48.752;11.348;2023-01-31T10:31:39;8.80;;;2.42;;
70303;SDS011;57712;48.752;11.348;2023-01-31T10:39:41;8.43;;;3.03;;
70303;SDS011;57712;48.752;11.348;2023-01-31T10:47:37;10.63;;;3.10;;
70303;SDS011;57712;48.752;11.348;2023-01-31T10:50:13;11.20;;;3.13;;
70303;SDS011;57712;48.752;11.348;2023-01-31T10:53:01;11.45;;;3.03;;
70303;SDS011;57712;48.752;11.348;2023-01-31T10:56:03;12.87;;;2.90;;
70303;SDS011;57712;48.752;11.348;2023-01-31T10:58:32;9.00;;;2.22;;
70303;SDS011;57712;48.752;11.348;2023-01-31T11:01:00;9.00;;;2.55;;
70303;SDS011;57712;48.752;11.348;2023-01-31T11:03:33;13.48;;;3.10;;
70303;SDS011;57712;48.752;11.348;2023-01-31T11:06:00;9.10;;;2.40;;
70303;SDS011;57712;48.752;11.348;2023-01-31T11:08:28;10.87;;;2.37;;
70303;SDS011;57712;48.752;11.348;2023-01-31T11:11:03;9.65;;;2.63;;
70303;SDS011;57712;48.752;11.348;2023-01-31T11:13:32;10.13;;;3.22;;
70303;SDS011;57712;48.752;11.348;2023-01-31T11:15:58;10.43;;;3.40;;
70303;SDS011;57712;48.752;11.348;2023-01-31T11:18:32;11.95;;;3.15;;
70303;SDS011;57712;48.752;11.348;2023-01-31T11:21:02;12.67;;;3.73;;
70303;SDS011;57712;48.752;11.348;2023-01-31T11:23:31;10.55;;;3.20;;
70303;SDS011;57712;48.752;11.348;2023-01-31T11:26:00;13.82;;;3.58;;
70303;SDS011;57712;48.752;11.348;2023-01-31T11:28:37;13.00;;;4.38;;
70303;SDS011;57712;48.752;11.348;2023-01-31T11:31:06;14.95;;;4.53;;
70303;SDS011;57712;48.752;11.348;2023-01-31T11:33:43;16.00;;;4.13;;
70303;SDS011;57712;48.752;11.348;2023-01-31T11:36:20;10.80;;;3.28;;
70303;SDS011;57712;48.752;11.348;2023-01-31T11:38:49;12.00;;;3.60;;
70303;SDS011;57712;48.752;11.348;2023-01-31T11:41:29;8.52;;;2.60;;
70303;SDS011;57712;48.752;11.348;2023-01-31T11:49:20;9.50;;;2.50;;
70303;SDS011;57712;48.752;11.348;2023-01-31T11:54:53;11.23;;;2.90;;
70303;SDS011;57712;48.752;11.348;2023-01-31T11:57:23;11.35;;;4.00;;
70303;SDS011;57712;48.752;11.348;2023-01-31T11:59:52;11.03;;;2.57;;
70303;SDS011;57712;48.752;11.348;2023-01-31T12:05:07;9.55;;;2.25;;
70303;SDS011;57712;48.752;11.348;2023-01-31T12:07:47;9.02;;;2.33;;
70303;SDS011;57712;48.752;11.348;2023-01-31T12:11:01;10.10;;;2.22;;
70303;SDS011;57712;48.752;11.348;2023-01-31T12:13:14;11.33;;;2.33;;
70303;SDS011;57712;48.752;11.348;2023-01-31T12:15:45;15.10;;;2.85;;
70303;SDS011;57712;48.752;11.348;2023-01-31T12:18:19;9.18;;;2.80;;
70303;SDS011;57712;48.752;11.348;2023-01-31T12:21:12;9.30;;;2.45;;
70303;SDS011;57712;48.752;11.348;2023-01-31T12:26:51;8.40;;;2.70;;
70303;SDS011;57712;48.752;11.348;2023-01-31T12:40:44;10.43;;;2.90;;
70303;SDS011;57712;48.752;11.348;2023-01-31T12:46:16;9.82;;;2.83;;
70303;SDS011;57712;48.752;11.348;2023-01-31T13:00:02;8.90;;;2.28;;
70303;SDS011;57712;48.752;11.348;2023-01-31T13:07:45;11.70;;;2.60;;
70303;SDS011;57712;48.752;11.348;2023-01-31T13:10:24;9.68;;;3.30;;
70303;SDS011;57712;48.752;11.348;2023-01-31T13:12:55;11.45;;;2.90;;
70303;SDS011;57712;48.752;11.348;2023-01-31T13:15:28;12.00;;;3.40;;
70303;SDS011;57712;48.752;11.348;2023-01-31T13:18:03;10.13;;;2.75;;
70303;SDS011;57712;48.752;11.348;2023-01-31T13:23:22;6.85;;;2.20;;
70303;SDS011;57712;48.752;11.348;2023-01-31T13:26:00;11.02;;;2.40;;
70303;SDS011;57712;48.752;11.348;2023-01-31T13:28:33;12.60;;;2.70;;
70303;SDS011;57712;48.752;11.348;2023-01-31T13:31:07;9.70;;;2.72;;
70303;SDS011;57712;48.752;11.348;2023-01-31T13:33:45;9.23;;;2.30;;
70303;SDS011;57712;48.752;11.348;2023-01-31T13:38:43;7.15;;;2.13;;
70303;SDS011;57712;48.752;11.348;2023-01-31T13:41:19;8.77;;;2.50;;
70303;SDS011;57712;48.752;11.348;2023-01-31T13:43:52;9.63;;;2.10;;
70303;SDS011;57712;48.752;11.348;2023-01-31T13:46:20;10.37;;;2.27;;
70303;SDS011;57712;48.752;11.348;2023-01-31T13:49:09;7.47;;;2.28;;
70303;SDS011;57712;48.752;11.348;2023-01-31T13:51:54;7.53;;;2.10;;
70303;SDS011;57712;48.752;11.348;2023-01-31T13:54:31;7.78;;;2.20;;
70303;SDS011;57712;48.752;11.348;2023-01-31T13:57:02;7.03;;;1.85;;
70303;SDS011;57712;48.752;11.348;2023-01-31T13:59:31;13.00;;;2.33;;
70303;SDS011;57712;48.752;11.348;2023-01-31T14:02:00;9.63;;;1.95;;
70303;SDS011;57712;48.752;11.348;2023-01-31T14:04:34;6.75;;;2.25;;
70303;SDS011;57712;48.752;11.348;2023-01-31T14:14:44;8.05;;;2.40;;
70303;SDS011;57712;48.752;11.348;2023-01-31T14:27:15;11.20;;;3.40;;
70303;SDS011;57712;48.752;11.348;2023-01-31T14:32:45;13.40;;;3.58;;
70303;SDS011;57712;48.752;11.348;2023-01-31T14:40:51;9.15;;;3.33;;
70303;SDS011;57712;48.752;11.348;2023-01-31T14:43:31;14.38;;;4.55;;
70303;SDS011;57712;48.752;11.348;2023-01-31T14:46:36;9.82;;;3.53;;
70303;SDS011;57712;48.752;11.348;2023-01-31T14:55:02;10.38;;;3.10;;
70303;SDS011;57712;48.752;11.348;2023-01-31T14:57:52;10.80;;;2.67;;
70303;SDS011;57712;48.752;11.348;2023-01-31T15:00:30;10.90;;;3.35;;
70303;SDS011;57712;48.752;11.348;2023-01-31T15:03:07;9.55;;;3.22;;
70303;SDS011;57712;48.752;11.348;2023-01-31T15:05:44;11.23;;;3.83;;
70303;SDS011;57712;48.752;11.348;2023-01-31T15:20:12;11.90;;;2.97;;
70303;SDS011;57712;48.752;11.348;2023-01-31T15:22:43;9.75;;;3.03;;
70303;SDS011;57712;48.752;11.348;2023-01-31T15:25:19;10.00;;;3.28;;
70303;SDS011;57712;48.752;11.348;2023-01-31T15:28:00;8.60;;;3.20;;
70303;SDS011;57712;48.752;11.348;2023-01-31T15:30:29;8.13;;;3.13;;
70303;SDS011;57712;48.752;11.348;2023-01-31T15:33:14;9.20;;;3.30;;
70303;SDS011;57712;48.752;11.348;2023-01-31T15:38:19;12.35;;;3.47;;
70303;SDS011;57712;48.752;11.348;2023-01-31T15:41:39;15.02;;;4.45;;
70303;SDS011;57712;48.752;11.348;2023-01-31T15:43:55;10.57;;;3.60;;
70303;SDS011;57712;48.752;11.348;2023-01-31T15:46:35;10.23;;;4.00;;
70303;SDS011;57712;48.752;11.348;2023-01-31T15:49:06;11.35;;;3.45;;
70303;SDS011;57712;48.752;11.348;2023-01-31T15:54:30;10.35;;;3.67;;
70303;SDS011;57712;48.752;11.348;2023-01-31T15:56:56;10.48;;;3.65;;
70303;SDS011;57712;48.752;11.348;2023-01-31T15:59:24;8.53;;;3.77;;
70303;SDS011;57712;48.752;11.348;2023-01-31T16:01:55;10.07;;;3.70;;
70303;SDS011;57712;48.752;11.348;2023-01-31T16:04:25;9.10;;;3.00;;
70303;SDS011;57712;48.752;11.348;2023-01-31T16:06:53;10.02;;;3.50;;
70303;SDS011;57712;48.752;11.348;2023-01-31T16:09:23;8.02;;;3.40;;
70303;SDS011;57712;48.752;11.348;2023-01-31T16:11:57;11.03;;;3.33;;
70303;SDS011;57712;48.752;11.348;2023-01-31T16:14:27;10.18;;;3.38;;
70303;SDS011;57712;48.752;11.348;2023-01-31T16:16:55;8.70;;;3.47;;
70303;SDS011;57712;48.752;11.348;2023-01-31T16:19:28;10.68;;;3.40;;
70303;SDS011;57712;48.752;11.348;2023-01-31T16:22:01;11.45;;;3.60;;
70303;SDS011;57712;48.752;11.348;2023-01-31T16:24:27;16.80;;;5.87;;
70303;SDS011;57712;48.752;11.348;2023-01-31T16:29:38;9.73;;;3.63;;
70303;SDS011;57712;48.752;11.348;2023-01-31T16:32:27;11.73;;;3.90;;
70303;SDS011;57712;48.752;11.348;2023-01-31T16:34:57;12.25;;;3.90;;
70303;SDS011;57712;48.752;11.348;2023-01-31T16:40:21;10.38;;;3.35;;
70303;SDS011;57712;48.752;11.348;2023-01-31T16:42:49;9.35;;;3.67;;
70303;SDS011;57712;48.752;11.348;2023-01-31T16:45:33;8.38;;;3.50;;
70303;SDS011;57712;48.752;11.348;2023-01-31T16:50:48;9.50;;;3.70;;
70303;SDS011;57712;48.752;11.348;2023-01-31T16:53:29;10.60;;;3.67;;
70303;SDS011;57712;48.752;11.348;2023-01-31T16:58:54;10.65;;;4.20;;
70303;SDS011;57712;48.752;11.348;2023-01-31T17:01:24;8.18;;;3.67;;
70303;SDS011;57712;48.752;11.348;2023-01-31T17:06:25;10.13;;;3.60;;
70303;SDS011;57712;48.752;11.348;2023-01-31T17:08:52;9.38;;;3.30;;
70303;SDS011;57712;48.752;11.348;2023-01-31T17:11:19;11.52;;;3.35;;
70303;SDS011;57712;48.752;11.348;2023-01-31T17:14:06;9.27;;;3.25;;
70303;SDS011;57712;48.752;11.348;2023-01-31T17:16:33;9.80;;;3.47;;
70303;SDS011;57712;48.752;11.348;2023-01-31T17:18:59;10.25;;;4.07;;
70303;SDS011;57712;48.752;11.348;2023-01-31T17:21:27;9.95;;;3.35;;
70303;SDS011;57712;48.752;11.348;2023-01-31T17:23:56;9.07;;;3.33;;
70303;SDS011;57712;48.752;11.348;2023-01-31T17:26:24;9.95;;;3.20;;
70303;SDS011;57712;48.752;11.348;2023-01-31T17:28:50;7.87;;;3.00;;
70303;SDS011;57712;48.752;11.348;2023-01-31T17:31:27;8.80;;;3.20;;